sensor_id;sensor_type;location;lat;lon;timestamp;P1;durP1;ratioP1;P2;durP2;ratioP2
5967;SDS011;3010;51.028;4.170;2023-08-06T00:00:59;4.77;;;3.97;;
5967;SDS011;3010;51.028;4.170;2023-08-06T00:03:25;10.00;;;3.80;;
5967;SDS011;3010;51.028;4.170;2023-08-06T00:05:52;4.50;;;4.03;;
5967;SDS011;3010;51.028;4.170;2023-08-06T00:08:18;5.07;;;3.83;;
5967;SDS011;3010;51.028;4.170;2023-08-06T00:10:47;4.80;;;4.33;;
5967;SDS011;3010;51.028;4.170;2023-08-06T00:13:12;5.43;;;4.13;;
5967;SDS011;3010;51.028;4.170;2023-08-06T00:15:38;6.47;;;4.17;;
5967;SDS011;3010;51.028;4.170;2023-08-06T00:18:05;4.27;;;4.00;;
5967;SDS011;3010;51.028;4.170;2023-08-06T00:20:31;4.87;;;3.90;;
5967;SDS011;3010;51.028;4.170;2023-08-06T00:22:58;7.13;;;4.40;;
5967;SDS011;3010;51.028;4.170;2023-08-06T00:25:25;4.77;;;4.30;;
5967;SDS011;3010;51.028;4.170;2023-08-06T00:27:51;4.83;;;4.43;;
5967;SDS011;3010;51.028;4.170;2023-08-06T00:30:18;8.10;;;5.67;;
5967;SDS011;3010;51.028;4.170;2023-08-06T00:32:44;6.77;;;5.00;;
5967;SDS011;3010;51.028;4.170;2023-08-06T00:35:11;9.17;;;6.40;;
5967;SDS011;3010;51.028;4.170;2023-08-06T00:37:38;8.57;;;5.63;;
5967;SDS011;3010;51.028;4.170;2023-08-06T00:40:05;10.77;;;6.23;;
5967;SDS011;3010;51.028;4.170;2023-08-06T00:42:31;7.73;;;5.67;;
5967;SDS011;3010;51.028;4.170;2023-08-06T00:44:58;7.30;;;5.27;;
5967;SDS011;3010;51.028;4.170;2023-08-06T00:47:24;6.83;;;5.53;;
5967;SDS011;3010;51.028;4.170;2023-08-06T00:49:51;9.97;;;5.43;;
5967;SDS011;3010;51.028;4.170;2023-08-06T00:52:17;13.43;;;7.07;;
5967;SDS011;3010;51.028;4.170;2023-08-06T00:54:44;7.47;;;6.13;;
5967;SDS011;3010;51.028;4.170;2023-08-06T00:57:11;7.87;;;6.13;;
5967;SDS011;3010;51.028;4.170;2023-08-06T00:59:37;12.23;;;6.07;;
5967;SDS011;3010;51.028;4.170;2023-08-06T01:02:04;8.70;;;7.30;;
5967;SDS011;3010;51.028;4.170;2023-08-06T01:04:31;13.75;;;8.25;;
5967;SDS011;3010;51.028;4.170;2023-08-06T01:09:50;12.23;;;7.07;;
5967;SDS011;3010;51.028;4.170;2023-08-06T01:12:25;12.82;;;8.50;;
5967;SDS011;3010;51.028;4.170;2023-08-06T01:17:29;13.83;;;7.23;;
5967;SDS011;3010;51.028;4.170;2023-08-06T01:19:55;10.63;;;7.10;;
5967;SDS011;3010;51.028;4.170;2023-08-06T01:22:22;12.27;;;7.53;;
5967;SDS011;3010;51.028;4.170;2023-08-06T01:24:49;10.10;;;8.20;;
5967;SDS011;3010;51.028;4.170;2023-08-06T01:27:17;10.20;;;7.73;;
5967;SDS011;3010;51.028;4.170;2023-08-06T01:29:42;10.03;;;7.47;;
5967;SDS011;3010;51.028;4.170;2023-08-06T01:32:08;14.23;;;8.60;;
5967;SDS011;3010;51.028;4.170;2023-08-06T01:34:35;11.40;;;8.43;;
5967;SDS011;3010;51.028;4.170;2023-08-06T01:37:01;12.87;;;9.03;;
5967;SDS011;3010;51.028;4.170;2023-08-06T01:39:28;12.27;;;8.80;;
5967;SDS011;3010;51.028;4.170;2023-08-06T01:41:54;9.23;;;8.13;;
5967;SDS011;3010;51.028;4.170;2023-08-06T01:44:21;13.20;;;8.20;;
5967;SDS011;3010;51.028;4.170;2023-08-06T01:46:48;12.37;;;8.73;;
5967;SDS011;3010;51.028;4.170;2023-08-06T01:49:14;10.40;;;9.03;;
5967;SDS011;3010;51.028;4.170;2023-08-06T01:51:41;13.60;;;8.60;;
5967;SDS011;3010;51.028;4.170;2023-08-06T01:54:07;10.03;;;8.87;;
5967;SDS011;3010;51.028;4.170;2023-08-06T01:56:34;10.43;;;8.77;;
5967;SDS011;3010;51.028;4.170;2023-08-06T01:59:00;13.40;;;9.00;;
5967;SDS011;3010;51.028;4.170;2023-08-06T02:01:27;9.40;;;8.33;;
5967;SDS011;3010;51.028;4.170;2023-08-06T02:03:54;11.20;;;8.20;;
5967;SDS011;3010;51.028;4.170;2023-08-06T02:06:20;16.30;;;9.47;;
5967;SDS011;3010;51.028;4.170;2023-08-06T02:08:47;12.70;;;9.30;;
5967;SDS011;3010;51.028;4.170;2023-08-06T02:11:13;12.40;;;10.40;;
5967;SDS011;3010;51.028;4.170;2023-08-06T02:13:40;13.17;;;9.80;;
5967;SDS011;3010;51.028;4.170;2023-08-06T02:16:07;13.30;;;10.23;;
5967;SDS011;3010;51.028;4.170;2023-08-06T02:18:33;11.47;;;9.83;;
5967;SDS011;3010;51.028;4.170;2023-08-06T02:21:00;13.83;;;9.77;;
5967;SDS011;3010;51.028;4.170;2023-08-06T02:23:26;14.47;;;9.87;;
5967;SDS011;3010;51.028;4.170;2023-08-06T02:28:26;16.47;;;9.90;;
5967;SDS011;3010;51.028;4.170;2023-08-06T02:30:52;17.43;;;10.10;;
5967;SDS011;3010;51.028;4.170;2023-08-06T02:33:19;19.73;;;11.90;;
5967;SDS011;3010;51.028;4.170;2023-08-06T02:35:46;17.97;;;11.40;;
5967;SDS011;3010;51.028;4.170;2023-08-06T02:38:12;18.13;;;11.17;;
5967;SDS011;3010;51.028;4.170;2023-08-06T02:40:45;16.20;;;11.40;;
5967;SDS011;3010;51.028;4.170;2023-08-06T02:43:12;18.13;;;10.77;;
5967;SDS011;3010;51.028;4.170;2023-08-06T02:45:41;17.80;;;11.07;;
5967;SDS011;3010;51.028;4.170;2023-08-06T02:48:07;21.10;;;10.70;;
5967;SDS011;3010;51.028;4.170;2023-08-06T02:50:40;19.77;;;11.37;;
5967;SDS011;3010;51.028;4.170;2023-08-06T02:53:09;20.13;;;10.90;;
5967;SDS011;3010;51.028;4.170;2023-08-06T02:55:33;17.93;;;11.33;;
5967;SDS011;3010;51.028;4.170;2023-08-06T02:58:02;16.50;;;10.67;;
5967;SDS011;3010;51.028;4.170;2023-08-06T03:00:29;14.90;;;7.67;;
5967;SDS011;3010;51.028;4.170;2023-08-06T03:02:55;19.87;;;7.73;;
5967;SDS011;3010;51.028;4.170;2023-08-06T03:05:22;8.13;;;5.47;;
5967;SDS011;3010;51.028;4.170;2023-08-06T03:07:48;6.80;;;4.60;;
5967;SDS011;3010;51.028;4.170;2023-08-06T03:10:15;4.93;;;4.20;;
5967;SDS011;3010;51.028;4.170;2023-08-06T03:12:42;15.27;;;4.67;;
5967;SDS011;3010;51.028;4.170;2023-08-06T03:15:08;4.27;;;3.97;;
5967;SDS011;3010;51.028;4.170;2023-08-06T03:17:35;6.62;;;4.32;;
5967;SDS011;3010;51.028;4.170;2023-08-06T03:20:02;8.88;;;4.57;;
5967;SDS011;3010;51.028;4.170;2023-08-06T03:22:28;6.10;;;4.93;;
5967;SDS011;3010;51.028;4.170;2023-08-06T03:24:55;4.67;;;4.37;;
5967;SDS011;3010;51.028;4.170;2023-08-06T03:27:21;5.73;;;4.20;;
5967;SDS011;3010;51.028;4.170;2023-08-06T03:29:51;4.47;;;4.27;;
5967;SDS011;3010;51.028;4.170;2023-08-06T03:32:17;4.13;;;3.93;;
5967;SDS011;3010;51.028;4.170;2023-08-06T03:34:44;4.17;;;3.87;;
5967;SDS011;3010;51.028;4.170;2023-08-06T03:37:11;3.67;;;3.33;;
5967;SDS011;3010;51.028;4.170;2023-08-06T03:39:37;3.60;;;3.10;;
5967;SDS011;3010;51.028;4.170;2023-08-06T03:42:04;3.20;;;2.97;;
5967;SDS011;3010;51.028;4.170;2023-08-06T03:44:30;11.00;;;2.60;;
5967;SDS011;3010;51.028;4.170;2023-08-06T03:46:57;5.20;;;2.43;;
5967;SDS011;3010;51.028;4.170;2023-08-06T03:49:24;2.23;;;1.87;;
5967;SDS011;3010;51.028;4.170;2023-08-06T03:51:50;2.07;;;1.90;;
5967;SDS011;3010;51.028;4.170;2023-08-06T03:54:17;2.00;;;1.80;;
5967;SDS011;3010;51.028;4.170;2023-08-06T03:56:43;2.40;;;2.30;;
5967;SDS011;3010;51.028;4.170;2023-08-06T03:59:10;4.70;;;2.60;;
5967;SDS011;3010;51.028;4.170;2023-08-06T04:01:36;3.80;;;3.00;;
5967;SDS011;3010;51.028;4.170;2023-08-06T04:04:03;4.97;;;4.07;;
5967;SDS011;3010;51.028;4.170;2023-08-06T04:06:30;4.90;;;4.47;;
5967;SDS011;3010;51.028;4.170;2023-08-06T04:08:56;5.50;;;3.77;;
5967;SDS011;3010;51.028;4.170;2023-08-06T04:11:23;5.63;;;5.13;;
5967;SDS011;3010;51.028;4.170;2023-08-06T04:13:49;8.07;;;5.30;;
5967;SDS011;3010;51.028;4.170;2023-08-06T04:16:16;10.37;;;5.70;;
5967;SDS011;3010;51.028;4.170;2023-08-06T04:18:43;6.67;;;6.07;;
5967;SDS011;3010;51.028;4.170;2023-08-06T04:21:09;8.40;;;5.67;;
5967;SDS011;3010;51.028;4.170;2023-08-06T04:23:36;9.13;;;6.10;;
5967;SDS011;3010;51.028;4.170;2023-08-06T04:26:02;11.77;;;6.40;;
5967;SDS011;3010;51.028;4.170;2023-08-06T04:28:29;12.83;;;7.23;;
5967;SDS011;3010;51.028;4.170;2023-08-06T04:30:56;10.93;;;8.57;;
5967;SDS011;3010;51.028;4.170;2023-08-06T04:33:22;12.60;;;7.87;;
5967;SDS011;3010;51.028;4.170;2023-08-06T04:35:53;9.30;;;7.43;;
5967;SDS011;3010;51.028;4.170;2023-08-06T04:38:15;11.77;;;9.18;;
5967;SDS011;3010;51.028;4.170;2023-08-06T04:40:42;12.73;;;8.20;;
5967;SDS011;3010;51.028;4.170;2023-08-06T04:43:08;10.20;;;8.10;;
5967;SDS011;3010;51.028;4.170;2023-08-06T04:45:35;9.70;;;7.47;;
5967;SDS011;3010;51.028;4.170;2023-08-06T04:48:02;9.30;;;7.23;;
5967;SDS011;3010;51.028;4.170;2023-08-06T04:50:28;10.00;;;6.83;;
5967;SDS011;3010;51.028;4.170;2023-08-06T04:52:55;12.17;;;6.97;;
5967;SDS011;3010;51.028;4.170;2023-08-06T04:55:21;13.63;;;7.13;;
5967;SDS011;3010;51.028;4.170;2023-08-06T04:57:48;11.50;;;7.10;;
5967;SDS011;3010;51.028;4.170;2023-08-06T05:00:15;11.57;;;6.77;;
5967;SDS011;3010;51.028;4.170;2023-08-06T05:02:41;15.00;;;7.97;;
5967;SDS011;3010;51.028;4.170;2023-08-06T05:05:08;14.10;;;7.50;;
5967;SDS011;3010;51.028;4.170;2023-08-06T05:07:34;11.10;;;7.23;;
5967;SDS011;3010;51.028;4.170;2023-08-06T05:10:01;10.70;;;6.30;;
5967;SDS011;3010;51.028;4.170;2023-08-06T05:12:27;12.33;;;7.60;;
5967;SDS011;3010;51.028;4.170;2023-08-06T05:14:54;16.90;;;6.57;;
5967;SDS011;3010;51.028;4.170;2023-08-06T05:17:21;13.30;;;6.27;;
5967;SDS011;3010;51.028;4.170;2023-08-06T05:19:47;11.83;;;6.50;;
5967;SDS011;3010;51.028;4.170;2023-08-06T05:22:14;15.30;;;6.20;;
5967;SDS011;3010;51.028;4.170;2023-08-06T05:24:40;20.77;;;7.40;;
5967;SDS011;3010;51.028;4.170;2023-08-06T05:27:07;19.70;;;7.47;;
5967;SDS011;3010;51.028;4.170;2023-08-06T05:29:34;18.73;;;6.93;;
5967;SDS011;3010;51.028;4.170;2023-08-06T05:32:00;18.67;;;7.00;;
5967;SDS011;3010;51.028;4.170;2023-08-06T05:34:27;10.70;;;5.60;;
5967;SDS011;3010;51.028;4.170;2023-08-06T05:36:53;16.33;;;5.70;;
5967;SDS011;3010;51.028;4.170;2023-08-06T05:39:20;9.17;;;5.03;;
5967;SDS011;3010;51.028;4.170;2023-08-06T05:41:47;12.27;;;5.37;;
5967;SDS011;3010;51.028;4.170;2023-08-06T05:44:13;20.07;;;5.23;;
5967;SDS011;3010;51.028;4.170;2023-08-06T05:46:40;13.20;;;5.53;;
5967;SDS011;3010;51.028;4.170;2023-08-06T05:49:06;15.13;;;5.03;;
5967;SDS011;3010;51.028;4.170;2023-08-06T05:51:33;14.97;;;5.93;;
5967;SDS011;3010;51.028;4.170;2023-08-06T05:53:59;13.53;;;5.20;;
5967;SDS011;3010;51.028;4.170;2023-08-06T05:56:26;16.40;;;6.37;;
5967;SDS011;3010;51.028;4.170;2023-08-06T05:58:53;16.03;;;5.87;;
5967;SDS011;3010;51.028;4.170;2023-08-06T06:01:19;13.50;;;6.43;;
5967;SDS011;3010;51.028;4.170;2023-08-06T06:03:46;13.47;;;5.47;;
5967;SDS011;3010;51.028;4.170;2023-08-06T06:06:12;12.93;;;5.50;;
5967;SDS011;3010;51.028;4.170;2023-08-06T06:08:39;13.83;;;5.80;;
5967;SDS011;3010;51.028;4.170;2023-08-06T06:11:06;11.50;;;5.57;;
5967;SDS011;3010;51.028;4.170;2023-08-06T06:13:32;9.60;;;4.90;;
5967;SDS011;3010;51.028;4.170;2023-08-06T06:15:59;19.77;;;5.50;;
5967;SDS011;3010;51.028;4.170;2023-08-06T06:18:25;8.00;;;5.13;;
5967;SDS011;3010;51.028;4.170;2023-08-06T06:20:52;12.57;;;5.50;;
5967;SDS011;3010;51.028;4.170;2023-08-06T06:23:19;8.63;;;5.17;;
5967;SDS011;3010;51.028;4.170;2023-08-06T06:25:48;14.70;;;5.90;;
5967;SDS011;3010;51.028;4.170;2023-08-06T06:28:15;9.73;;;5.37;;
5967;SDS011;3010;51.028;4.170;2023-08-06T06:30:41;14.13;;;5.53;;
5967;SDS011;3010;51.028;4.170;2023-08-06T06:33:08;14.33;;;5.00;;
5967;SDS011;3010;51.028;4.170;2023-08-06T06:35:34;11.33;;;5.10;;
5967;SDS011;3010;51.028;4.170;2023-08-06T06:38:01;11.07;;;4.30;;
5967;SDS011;3010;51.028;4.170;2023-08-06T06:40:28;13.87;;;5.10;;
5967;SDS011;3010;51.028;4.170;2023-08-06T06:42:54;11.57;;;4.47;;
5967;SDS011;3010;51.028;4.170;2023-08-06T06:45:21;10.03;;;3.70;;
5967;SDS011;3010;51.028;4.170;2023-08-06T06:47:47;8.90;;;3.53;;
5967;SDS011;3010;51.028;4.170;2023-08-06T06:50:14;12.83;;;3.07;;
5967;SDS011;3010;51.028;4.170;2023-08-06T06:52:41;9.30;;;3.60;;
5967;SDS011;3010;51.028;4.170;2023-08-06T06:55:07;8.47;;;2.90;;
5967;SDS011;3010;51.028;4.170;2023-08-06T06:57:34;12.33;;;3.50;;
5967;SDS011;3010;51.028;4.170;2023-08-06T07:00:00;10.20;;;2.50;;
5967;SDS011;3010;51.028;4.170;2023-08-06T07:02:27;12.77;;;2.27;;
5967;SDS011;3010;51.028;4.170;2023-08-06T07:04:54;9.87;;;3.40;;
5967;SDS011;3010;51.028;4.170;2023-08-06T07:07:20;9.60;;;2.53;;
5967;SDS011;3010;51.028;4.170;2023-08-06T07:09:47;5.30;;;2.10;;
5967;SDS011;3010;51.028;4.170;2023-08-06T07:12:13;13.20;;;2.67;;
5967;SDS011;3010;51.028;4.170;2023-08-06T07:14:40;9.40;;;2.40;;
5967;SDS011;3010;51.028;4.170;2023-08-06T07:17:07;7.03;;;2.40;;
5967;SDS011;3010;51.028;4.170;2023-08-06T07:19:33;12.87;;;2.70;;
5967;SDS011;3010;51.028;4.170;2023-08-06T07:22:00;11.53;;;2.87;;
5967;SDS011;3010;51.028;4.170;2023-08-06T07:24:26;10.63;;;2.80;;
5967;SDS011;3010;51.028;4.170;2023-08-06T07:26:53;10.23;;;3.47;;
5967;SDS011;3010;51.028;4.170;2023-08-06T07:29:20;17.80;;;3.30;;
5967;SDS011;3010;51.028;4.170;2023-08-06T07:31:46;14.43;;;4.03;;
5967;SDS011;3010;51.028;4.170;2023-08-06T07:34:13;18.53;;;4.07;;
5967;SDS011;3010;51.028;4.170;2023-08-06T07:36:39;14.37;;;3.93;;
5967;SDS011;3010;51.028;4.170;2023-08-06T07:39:06;12.97;;;3.10;;
5967;SDS011;3010;51.028;4.170;2023-08-06T07:41:32;11.67;;;3.33;;
5967;SDS011;3010;51.028;4.170;2023-08-06T07:43:59;9.30;;;2.60;;
5967;SDS011;3010;51.028;4.170;2023-08-06T07:46:26;13.67;;;3.30;;
5967;SDS011;3010;51.028;4.170;2023-08-06T07:48:52;7.10;;;2.50;;
5967;SDS011;3010;51.028;4.170;2023-08-06T07:51:19;6.20;;;2.40;;
5967;SDS011;3010;51.028;4.170;2023-08-06T07:53:45;6.97;;;2.30;;
5967;SDS011;3010;51.028;4.170;2023-08-06T07:56:12;11.50;;;3.10;;
5967;SDS011;3010;51.028;4.170;2023-08-06T07:58:39;9.37;;;2.67;;
5967;SDS011;3010;51.028;4.170;2023-08-06T08:01:06;6.60;;;2.60;;
5967;SDS011;3010;51.028;4.170;2023-08-06T08:03:32;8.93;;;2.60;;
5967;SDS011;3010;51.028;4.170;2023-08-06T08:05:58;10.93;;;2.83;;
5967;SDS011;3010;51.028;4.170;2023-08-06T08:08:25;5.10;;;2.60;;
5967;SDS011;3010;51.028;4.170;2023-08-06T08:10:51;6.37;;;2.43;;
5967;SDS011;3010;51.028;4.170;2023-08-06T08:13:18;10.70;;;2.80;;
5967;SDS011;3010;51.028;4.170;2023-08-06T08:15:45;10.93;;;3.03;;
5967;SDS011;3010;51.028;4.170;2023-08-06T08:18:11;7.53;;;2.40;;
5967;SDS011;3010;51.028;4.170;2023-08-06T08:20:38;20.93;;;2.80;;
5967;SDS011;3010;51.028;4.170;2023-08-06T08:23:04;9.90;;;2.60;;
5967;SDS011;3010;51.028;4.170;2023-08-06T08:25:31;7.47;;;2.40;;
5967;SDS011;3010;51.028;4.170;2023-08-06T08:27:58;7.97;;;2.67;;
5967;SDS011;3010;51.028;4.170;2023-08-06T08:30:24;12.50;;;2.97;;
5967;SDS011;3010;51.028;4.170;2023-08-06T08:32:51;8.10;;;2.40;;
5967;SDS011;3010;51.028;4.170;2023-08-06T08:35:17;10.43;;;3.43;;
5967;SDS011;3010;51.028;4.170;2023-08-06T08:37:44;10.77;;;2.77;;
5967;SDS011;3010;51.028;4.170;2023-08-06T08:40:11;9.70;;;2.80;;
5967;SDS011;3010;51.028;4.170;2023-08-06T08:42:37;11.25;;;2.92;;
5967;SDS011;3010;51.028;4.170;2023-08-06T08:45:04;6.57;;;2.57;;
5967;SDS011;3010;51.028;4.170;2023-08-06T08:47:31;14.03;;;2.70;;
5967;SDS011;3010;51.028;4.170;2023-08-06T08:49:57;12.23;;;3.07;;
5967;SDS011;3010;51.028;4.170;2023-08-06T08:52:24;8.73;;;2.60;;
5967;SDS011;3010;51.028;4.170;2023-08-06T08:54:50;7.03;;;2.57;;
5967;SDS011;3010;51.028;4.170;2023-08-06T08:57:17;13.70;;;3.23;;
5967;SDS011;3010;51.028;4.170;2023-08-06T08:59:43;18.77;;;3.70;;
5967;SDS011;3010;51.028;4.170;2023-08-06T09:02:13;13.63;;;3.23;;
5967;SDS011;3010;51.028;4.170;2023-08-06T09:04:40;15.40;;;3.17;;
5967;SDS011;3010;51.028;4.170;2023-08-06T09:07:06;8.80;;;3.03;;
5967;SDS011;3010;51.028;4.170;2023-08-06T09:09:33;14.77;;;4.00;;
5967;SDS011;3010;51.028;4.170;2023-08-06T09:12:03;12.97;;;3.50;;
5967;SDS011;3010;51.028;4.170;2023-08-06T09:14:29;11.50;;;3.30;;
5967;SDS011;3010;51.028;4.170;2023-08-06T09:16:56;5.60;;;3.13;;
5967;SDS011;3010;51.028;4.170;2023-08-06T09:19:22;15.13;;;4.27;;
5967;SDS011;3010;51.028;4.170;2023-08-06T09:21:50;14.67;;;3.60;;
5967;SDS011;3010;51.028;4.170;2023-08-06T09:24:15;16.07;;;4.20;;
5967;SDS011;3010;51.028;4.170;2023-08-06T09:26:43;13.40;;;3.80;;
5967;SDS011;3010;51.028;4.170;2023-08-06T09:29:09;7.37;;;3.70;;
5967;SDS011;3010;51.028;4.170;2023-08-06T09:31:42;10.93;;;3.27;;
5967;SDS011;3010;51.028;4.170;2023-08-06T09:34:11;16.47;;;3.97;;
5967;SDS011;3010;51.028;4.170;2023-08-06T09:36:43;14.90;;;3.50;;
5967;SDS011;3010;51.028;4.170;2023-08-06T09:39:12;14.47;;;3.60;;
5967;SDS011;3010;51.028;4.170;2023-08-06T09:41:38;15.27;;;3.53;;
5967;SDS011;3010;51.028;4.170;2023-08-06T09:44:05;14.20;;;3.60;;
5967;SDS011;3010;51.028;4.170;2023-08-06T09:46:32;14.20;;;2.53;;
5967;SDS011;3010;51.028;4.170;2023-08-06T09:48:58;16.50;;;3.53;;
5967;SDS011;3010;51.028;4.170;2023-08-06T09:51:25;12.73;;;3.10;;
5967;SDS011;3010;51.028;4.170;2023-08-06T09:53:51;12.83;;;3.50;;
5967;SDS011;3010;51.028;4.170;2023-08-06T09:56:18;14.73;;;4.03;;
5967;SDS011;3010;51.028;4.170;2023-08-06T09:58:44;10.80;;;2.97;;
5967;SDS011;3010;51.028;4.170;2023-08-06T10:01:11;11.33;;;3.20;;
5967;SDS011;3010;51.028;4.170;2023-08-06T10:03:38;10.17;;;3.40;;
5967;SDS011;3010;51.028;4.170;2023-08-06T10:06:04;7.20;;;3.17;;
5967;SDS011;3010;51.028;4.170;2023-08-06T10:08:31;12.10;;;3.70;;
5967;SDS011;3010;51.028;4.170;2023-08-06T10:10:57;13.60;;;3.50;;
5967;SDS011;3010;51.028;4.170;2023-08-06T10:13:24;7.87;;;3.10;;
5967;SDS011;3010;51.028;4.170;2023-08-06T10:15:50;10.23;;;2.77;;
5967;SDS011;3010;51.028;4.170;2023-08-06T10:18:17;9.73;;;3.53;;
5967;SDS011;3010;51.028;4.170;2023-08-06T10:20:44;9.30;;;3.20;;
5967;SDS011;3010;51.028;4.170;2023-08-06T10:23:10;8.60;;;2.53;;
5967;SDS011;3010;51.028;4.170;2023-08-06T10:25:40;6.73;;;2.77;;
5967;SDS011;3010;51.028;4.170;2023-08-06T10:28:07;8.17;;;2.90;;
5967;SDS011;3010;51.028;4.170;2023-08-06T10:30:33;9.17;;;2.40;;
5967;SDS011;3010;51.028;4.170;2023-08-06T10:33:02;4.83;;;2.43;;
5967;SDS011;3010;51.028;4.170;2023-08-06T10:35:42;6.47;;;2.87;;
5967;SDS011;3010;51.028;4.170;2023-08-06T10:38:11;7.73;;;2.63;;
5967;SDS011;3010;51.028;4.170;2023-08-06T10:40:39;8.33;;;3.23;;
5967;SDS011;3010;51.028;4.170;2023-08-06T10:43:07;11.30;;;2.90;;
5967;SDS011;3010;51.028;4.170;2023-08-06T10:45:36;9.43;;;3.17;;
5967;SDS011;3010;51.028;4.170;2023-08-06T10:48:02;9.63;;;3.67;;
5967;SDS011;3010;51.028;4.170;2023-08-06T10:50:29;10.23;;;3.27;;
5967;SDS011;3010;51.028;4.170;2023-08-06T10:52:56;12.07;;;3.87;;
5967;SDS011;3010;51.028;4.170;2023-08-06T10:55:23;9.57;;;3.53;;
5967;SDS011;3010;51.028;4.170;2023-08-06T10:57:49;12.00;;;4.03;;
5967;SDS011;3010;51.028;4.170;2023-08-06T11:00:15;9.53;;;3.83;;
5967;SDS011;3010;51.028;4.170;2023-08-06T11:02:42;8.83;;;3.33;;
5967;SDS011;3010;51.028;4.170;2023-08-06T11:05:09;9.30;;;3.63;;
5967;SDS011;3010;51.028;4.170;2023-08-06T11:07:35;10.77;;;4.00;;
5967;SDS011;3010;51.028;4.170;2023-08-06T11:10:05;9.40;;;3.97;;
5967;SDS011;3010;51.028;4.170;2023-08-06T11:12:28;9.50;;;3.47;;
5967;SDS011;3010;51.028;4.170;2023-08-06T11:14:55;8.03;;;4.17;;
5967;SDS011;3010;51.028;4.170;2023-08-06T11:17:22;9.93;;;4.10;;
5967;SDS011;3010;51.028;4.170;2023-08-06T11:19:48;8.03;;;3.33;;
5967;SDS011;3010;51.028;4.170;2023-08-06T11:22:15;5.90;;;3.30;;
5967;SDS011;3010;51.028;4.170;2023-08-06T11:24:41;12.93;;;4.37;;
5967;SDS011;3010;51.028;4.170;2023-08-06T11:27:11;7.83;;;3.77;;
5967;SDS011;3010;51.028;4.170;2023-08-06T11:29:40;6.20;;;3.70;;
5967;SDS011;3010;51.028;4.170;2023-08-06T11:32:06;7.53;;;3.30;;
5967;SDS011;3010;51.028;4.170;2023-08-06T11:34:33;7.03;;;2.53;;
5967;SDS011;3010;51.028;4.170;2023-08-06T11:37:00;12.97;;;4.07;;
5967;SDS011;3010;51.028;4.170;2023-08-06T11:39:26;8.73;;;3.37;;
5967;SDS011;3010;51.028;4.170;2023-08-06T11:41:53;6.93;;;2.83;;
5967;SDS011;3010;51.028;4.170;2023-08-06T11:44:19;9.57;;;2.87;;
5967;SDS011;3010;51.028;4.170;2023-08-06T11:46:49;4.03;;;2.57;;
5967;SDS011;3010;51.028;4.170;2023-08-06T11:49:15;12.10;;;2.50;;
5967;SDS011;3010;51.028;4.170;2023-08-06T11:51:42;11.43;;;2.70;;
5967;SDS011;3010;51.028;4.170;2023-08-06T11:54:09;8.03;;;2.77;;
5967;SDS011;3010;51.028;4.170;2023-08-06T11:56:35;8.93;;;3.33;;
5967;SDS011;3010;51.028;4.170;2023-08-06T11:59:02;6.70;;;3.00;;
5967;SDS011;3010;51.028;4.170;2023-08-06T12:01:28;11.00;;;3.10;;
5967;SDS011;3010;51.028;4.170;2023-08-06T12:03:58;9.80;;;3.13;;
5967;SDS011;3010;51.028;4.170;2023-08-06T12:06:27;8.37;;;2.90;;
5967;SDS011;3010;51.028;4.170;2023-08-06T12:08:53;10.30;;;3.03;;
5967;SDS011;3010;51.028;4.170;2023-08-06T12:11:23;10.13;;;2.97;;
5967;SDS011;3010;51.028;4.170;2023-08-06T12:13:54;8.07;;;3.03;;
5967;SDS011;3010;51.028;4.170;2023-08-06T12:16:19;13.73;;;3.20;;
5967;SDS011;3010;51.028;4.170;2023-08-06T12:18:45;7.67;;;2.40;;
5967;SDS011;3010;51.028;4.170;2023-08-06T12:21:12;9.33;;;2.90;;
5967;SDS011;3010;51.028;4.170;2023-08-06T12:23:39;9.90;;;2.87;;
5967;SDS011;3010;51.028;4.170;2023-08-06T12:26:05;8.30;;;2.90;;
5967;SDS011;3010;51.028;4.170;2023-08-06T12:28:32;10.13;;;3.10;;
5967;SDS011;3010;51.028;4.170;2023-08-06T12:30:58;5.47;;;2.70;;
5967;SDS011;3010;51.028;4.170;2023-08-06T12:33:25;5.23;;;2.27;;
5967;SDS011;3010;51.028;4.170;2023-08-06T12:35:52;9.17;;;2.80;;
5967;SDS011;3010;51.028;4.170;2023-08-06T12:38:21;9.37;;;3.47;;
5967;SDS011;3010;51.028;4.170;2023-08-06T12:40:48;8.07;;;2.50;;
5967;SDS011;3010;51.028;4.170;2023-08-06T12:43:14;9.30;;;3.20;;
5967;SDS011;3010;51.028;4.170;2023-08-06T12:45:41;7.90;;;2.70;;
5967;SDS011;3010;51.028;4.170;2023-08-06T12:48:08;8.33;;;2.70;;
5967;SDS011;3010;51.028;4.170;2023-08-06T12:50:34;8.37;;;3.00;;
5967;SDS011;3010;51.028;4.170;2023-08-06T12:53:01;10.03;;;2.90;;
5967;SDS011;3010;51.028;4.170;2023-08-06T12:55:27;9.03;;;3.10;;
5967;SDS011;3010;51.028;4.170;2023-08-06T12:57:54;12.43;;;3.13;;
5967;SDS011;3010;51.028;4.170;2023-08-06T13:00:20;7.73;;;3.10;;
5967;SDS011;3010;51.028;4.170;2023-08-06T13:02:47;9.33;;;3.30;;
5967;SDS011;3010;51.028;4.170;2023-08-06T13:05:14;12.48;;;3.25;;
5967;SDS011;3010;51.028;4.170;2023-08-06T13:07:40;12.60;;;3.40;;
5967;SDS011;3010;51.028;4.170;2023-08-06T13:10:07;11.10;;;4.27;;
5967;SDS011;3010;51.028;4.170;2023-08-06T13:12:33;10.63;;;3.60;;
5967;SDS011;3010;51.028;4.170;2023-08-06T13:15:00;13.03;;;3.70;;
5967;SDS011;3010;51.028;4.170;2023-08-06T13:17:27;8.70;;;3.40;;
5967;SDS011;3010;51.028;4.170;2023-08-06T13:19:53;11.60;;;3.53;;
5967;SDS011;3010;51.028;4.170;2023-08-06T13:22:20;8.43;;;3.30;;
5967;SDS011;3010;51.028;4.170;2023-08-06T13:24:46;6.00;;;2.60;;
5967;SDS011;3010;51.028;4.170;2023-08-06T13:27:13;6.13;;;2.53;;
5967;SDS011;3010;51.028;4.170;2023-08-06T13:29:39;10.33;;;3.33;;
5967;SDS011;3010;51.028;4.170;2023-08-06T13:32:06;8.27;;;2.50;;
5967;SDS011;3010;51.028;4.170;2023-08-06T13:34:33;8.23;;;2.70;;
5967;SDS011;3010;51.028;4.170;2023-08-06T13:36:59;10.43;;;2.73;;
5967;SDS011;3010;51.028;4.170;2023-08-06T13:39:26;6.90;;;2.70;;
5967;SDS011;3010;51.028;4.170;2023-08-06T13:41:52;6.97;;;2.60;;
5967;SDS011;3010;51.028;4.170;2023-08-06T13:44:19;11.50;;;2.63;;
5967;SDS011;3010;51.028;4.170;2023-08-06T13:46:46;9.43;;;3.30;;
5967;SDS011;3010;51.028;4.170;2023-08-06T13:49:12;8.97;;;2.87;;
5967;SDS011;3010;51.028;4.170;2023-08-06T13:51:39;5.83;;;2.57;;
5967;SDS011;3010;51.028;4.170;2023-08-06T13:54:05;8.23;;;2.97;;
5967;SDS011;3010;51.028;4.170;2023-08-06T13:56:32;6.23;;;2.70;;
5967;SDS011;3010;51.028;4.170;2023-08-06T13:58:59;9.93;;;2.70;;
5967;SDS011;3010;51.028;4.170;2023-08-06T14:01:25;12.13;;;3.30;;
5967;SDS011;3010;51.028;4.170;2023-08-06T14:03:52;13.93;;;4.17;;
5967;SDS011;3010;51.028;4.170;2023-08-06T14:06:18;14.40;;;3.50;;
5967;SDS011;3010;51.028;4.170;2023-08-06T14:08:45;16.27;;;3.57;;
5967;SDS011;3010;51.028;4.170;2023-08-06T14:11:11;17.13;;;4.67;;
5967;SDS011;3010;51.028;4.170;2023-08-06T14:13:38;12.47;;;4.10;;
5967;SDS011;3010;51.028;4.170;2023-08-06T14:16:05;12.67;;;4.17;;
5967;SDS011;3010;51.028;4.170;2023-08-06T14:18:31;13.07;;;4.13;;
5967;SDS011;3010;51.028;4.170;2023-08-06T14:20:58;12.80;;;3.90;;
5967;SDS011;3010;51.028;4.170;2023-08-06T14:23:24;13.40;;;3.80;;
5967;SDS011;3010;51.028;4.170;2023-08-06T14:25:51;13.70;;;3.63;;
5967;SDS011;3010;51.028;4.170;2023-08-06T14:28:18;12.40;;;4.50;;
5967;SDS011;3010;51.028;4.170;2023-08-06T14:30:44;13.33;;;5.23;;
5967;SDS011;3010;51.028;4.170;2023-08-06T14:33:11;12.90;;;4.57;;
5967;SDS011;3010;51.028;4.170;2023-08-06T14:35:37;11.27;;;4.03;;
5967;SDS011;3010;51.028;4.170;2023-08-06T14:38:04;11.90;;;3.90;;
5967;SDS011;3010;51.028;4.170;2023-08-06T14:40:31;10.57;;;3.73;;
5967;SDS011;3010;51.028;4.170;2023-08-06T14:43:00;7.80;;;3.43;;
5967;SDS011;3010;51.028;4.170;2023-08-06T14:45:27;7.30;;;4.20;;
5967;SDS011;3010;51.028;4.170;2023-08-06T14:47:53;13.03;;;5.03;;
5967;SDS011;3010;51.028;4.170;2023-08-06T14:50:20;5.60;;;2.70;;
5967;SDS011;3010;51.028;4.170;2023-08-06T14:52:47;5.00;;;2.20;;
5967;SDS011;3010;51.028;4.170;2023-08-06T14:55:25;4.47;;;2.13;;
5967;SDS011;3010;51.028;4.170;2023-08-06T14:57:52;5.63;;;2.23;;
5967;SDS011;3010;51.028;4.170;2023-08-06T15:00:19;3.23;;;2.37;;
5967;SDS011;3010;51.028;4.170;2023-08-06T15:02:45;7.77;;;2.33;;
5967;SDS011;3010;51.028;4.170;2023-08-06T15:05:13;6.60;;;2.10;;
5967;SDS011;3010;51.028;4.170;2023-08-06T15:07:39;2.63;;;2.10;;
5967;SDS011;3010;51.028;4.170;2023-08-06T15:10:06;7.80;;;2.50;;
5967;SDS011;3010;51.028;4.170;2023-08-06T15:12:32;8.43;;;2.40;;